sensor_id;sensor_type;location;lat;lon;timestamp;P1;durP1;ratioP1;P2;durP2;ratioP2
79361;SDS011;68830;47.566;19.012;2023-05-07T00:02:46;2.50;;;2.30;;
79361;SDS011;68830;47.566;19.012;2023-05-07T00:05:49;2.15;;;1.95;;
79361;SDS011;68830;47.566;19.012;2023-05-07T00:08:51;2.50;;;2.30;;
79361;SDS011;68830;47.566;19.012;2023-05-07T00:11:53;2.42;;;2.10;;
79361;SDS011;68830;47.566;19.012;2023-05-07T00:14:55;2.30;;;2.10;;
79361;SDS011;68830;47.566;19.012;2023-05-07T00:17:58;2.22;;;2.03;;
79361;SDS011;68830;47.566;19.012;2023-05-07T00:21:01;2.60;;;2.28;;
79361;SDS011;68830;47.566;19.012;2023-05-07T00:24:03;2.95;;;2.45;;
79361;SDS011;68830;47.566;19.012;2023-05-07T00:27:05;2.75;;;2.55;;
79361;SDS011;68830;47.566;19.012;2023-05-07T00:30:08;3.58;;;2.80;;
79361;SDS011;68830;47.566;19.012;2023-05-07T00:33:12;3.70;;;3.35;;
79361;SDS011;68830;47.566;19.012;2023-05-07T00:36:15;2.88;;;2.60;;
79361;SDS011;68830;47.566;19.012;2023-05-07T00:39:17;2.83;;;2.63;;
79361;SDS011;68830;47.566;19.012;2023-05-07T00:42:19;2.90;;;2.40;;
79361;SDS011;68830;47.566;19.012;2023-05-07T00:45:21;3.33;;;3.05;;
79361;SDS011;68830;47.566;19.012;2023-05-07T00:48:25;2.95;;;2.72;;
79361;SDS011;68830;47.566;19.012;2023-05-07T00:51:28;2.88;;;2.67;;
79361;SDS011;68830;47.566;19.012;2023-05-07T00:54:31;3.08;;;2.65;;
79361;SDS011;68830;47.566;19.012;2023-05-07T00:57:36;2.70;;;2.50;;
79361;SDS011;68830;47.566;19.012;2023-05-07T01:00:39;3.05;;;2.85;;
79361;SDS011;68830;47.566;19.012;2023-05-07T01:03:42;2.97;;;2.78;;
79361;SDS011;68830;47.566;19.012;2023-05-07T01:06:45;2.97;;;2.67;;
79361;SDS011;68830;47.566;19.012;2023-05-07T01:09:48;3.63;;;3.33;;
79361;SDS011;68830;47.566;19.012;2023-05-07T01:12:50;4.13;;;3.78;;
79361;SDS011;68830;47.566;19.012;2023-05-07T01:15:53;4.22;;;3.90;;
79361;SDS011;68830;47.566;19.012;2023-05-07T01:18:56;4.00;;;3.70;;
79361;SDS011;68830;47.566;19.012;2023-05-07T01:22:01;4.65;;;4.25;;
79361;SDS011;68830;47.566;19.012;2023-05-07T01:25:07;3.60;;;3.30;;
79361;SDS011;68830;47.566;19.012;2023-05-07T01:28:10;4.20;;;3.90;;
79361;SDS011;68830;47.566;19.012;2023-05-07T01:31:12;4.25;;;3.95;;
79361;SDS011;68830;47.566;19.012;2023-05-07T01:34:15;4.35;;;4.03;;
79361;SDS011;68830;47.566;19.012;2023-05-07T01:37:19;4.40;;;4.00;;
79361;SDS011;68830;47.566;19.012;2023-05-07T01:40:23;4.88;;;4.47;;
79361;SDS011;68830;47.566;19.012;2023-05-07T01:43:27;4.68;;;4.28;;
79361;SDS011;68830;47.566;19.012;2023-05-07T01:46:30;5.53;;;5.03;;
79361;SDS011;68830;47.566;19.012;2023-05-07T01:49:34;4.85;;;4.45;;
79361;SDS011;68830;47.566;19.012;2023-05-07T01:52:36;4.55;;;4.15;;
79361;SDS011;68830;47.566;19.012;2023-05-07T01:55:41;4.00;;;3.65;;
79361;SDS011;68830;47.566;19.012;2023-05-07T01:58:44;4.28;;;3.88;;
79361;SDS011;68830;47.566;19.012;2023-05-07T02:01:46;4.00;;;3.70;;
79361;SDS011;68830;47.566;19.012;2023-05-07T02:04:48;4.35;;;3.95;;
79361;SDS011;68830;47.566;19.012;2023-05-07T02:07:51;4.13;;;3.83;;
79361;SDS011;68830;47.566;19.012;2023-05-07T02:10:54;2.80;;;2.60;;
79361;SDS011;68830;47.566;19.012;2023-05-07T02:13:56;3.00;;;2.75;;
79361;SDS011;68830;47.566;19.012;2023-05-07T02:16:58;3.10;;;2.80;;
79361;SDS011;68830;47.566;19.012;2023-05-07T02:20:00;3.15;;;2.85;;
79361;SDS011;68830;47.566;19.012;2023-05-07T02:23:02;3.40;;;2.97;;
79361;SDS011;68830;47.566;19.012;2023-05-07T02:26:05;3.88;;;3.58;;
79361;SDS011;68830;47.566;19.012;2023-05-07T02:29:08;4.10;;;3.70;;
79361;SDS011;68830;47.566;19.012;2023-05-07T02:32:10;3.72;;;3.42;;
79361;SDS011;68830;47.566;19.012;2023-05-07T02:35:12;4.43;;;3.88;;
79361;SDS011;68830;47.566;19.012;2023-05-07T02:38:14;3.90;;;3.60;;
79361;SDS011;68830;47.566;19.012;2023-05-07T02:41:17;4.10;;;3.70;;
79361;SDS011;68830;47.566;19.012;2023-05-07T02:44:20;3.58;;;3.20;;
79361;SDS011;68830;47.566;19.012;2023-05-07T02:47:22;4.00;;;3.70;;
79361;SDS011;68830;47.566;19.012;2023-05-07T02:50:25;3.65;;;3.25;;
79361;SDS011;68830;47.566;19.012;2023-05-07T02:53:28;4.85;;;4.00;;
79361;SDS011;68830;47.566;19.012;2023-05-07T02:56:32;3.72;;;3.42;;
79361;SDS011;68830;47.566;19.012;2023-05-07T02:59:33;4.20;;;3.47;;
79361;SDS011;68830;47.566;19.012;2023-05-07T03:02:35;3.38;;;3.08;;
79361;SDS011;68830;47.566;19.012;2023-05-07T03:05:38;3.50;;;3.20;;
79361;SDS011;68830;47.566;19.012;2023-05-07T03:08:40;3.47;;;3.17;;
79361;SDS011;68830;47.566;19.012;2023-05-07T03:11:43;4.07;;;3.67;;
79361;SDS011;68830;47.566;19.012;2023-05-07T03:14:45;4.32;;;3.88;;
79361;SDS011;68830;47.566;19.012;2023-05-07T03:17:47;3.80;;;3.50;;
79361;SDS011;68830;47.566;19.012;2023-05-07T03:20:49;3.70;;;3.40;;
79361;SDS011;68830;47.566;19.012;2023-05-07T03:23:51;3.92;;;3.58;;
79361;SDS011;68830;47.566;19.012;2023-05-07T03:26:54;3.60;;;3.28;;
79361;SDS011;68830;47.566;19.012;2023-05-07T03:29:57;4.55;;;3.20;;
79361;SDS011;68830;47.566;19.012;2023-05-07T03:32:58;3.45;;;3.15;;
79361;SDS011;68830;47.566;19.012;2023-05-07T03:36:02;3.30;;;3.00;;
79361;SDS011;68830;47.566;19.012;2023-05-07T03:39:04;3.75;;;3.45;;
79361;SDS011;68830;47.566;19.012;2023-05-07T03:42:07;3.95;;;3.55;;
79361;SDS011;68830;47.566;19.012;2023-05-07T03:45:10;3.47;;;3.17;;
79361;SDS011;68830;47.566;19.012;2023-05-07T03:48:12;3.60;;;3.30;;
79361;SDS011;68830;47.566;19.012;2023-05-07T03:51:13;3.40;;;3.10;;
79361;SDS011;68830;47.566;19.012;2023-05-07T03:54:16;4.22;;;3.83;;
79361;SDS011;68830;47.566;19.012;2023-05-07T03:57:19;4.00;;;3.60;;
79361;SDS011;68830;47.566;19.012;2023-05-07T04:00:21;4.18;;;3.78;;
79361;SDS011;68830;47.566;19.012;2023-05-07T04:03:24;4.18;;;3.78;;
79361;SDS011;68830;47.566;19.012;2023-05-07T04:06:26;4.60;;;4.20;;
79361;SDS011;68830;47.566;19.012;2023-05-07T04:09:28;4.00;;;3.70;;
79361;SDS011;68830;47.566;19.012;2023-05-07T04:12:32;4.68;;;4.28;;
79361;SDS011;68830;47.566;19.012;2023-05-07T04:15:35;4.22;;;3.83;;
79361;SDS011;68830;47.566;19.012;2023-05-07T04:18:37;4.20;;;3.83;;
79361;SDS011;68830;47.566;19.012;2023-05-07T04:21:38;4.95;;;4.45;;
79361;SDS011;68830;47.566;19.012;2023-05-07T04:24:41;4.25;;;3.88;;
79361;SDS011;68830;47.566;19.012;2023-05-07T04:27:45;5.45;;;3.50;;
79361;SDS011;68830;47.566;19.012;2023-05-07T04:30:47;4.10;;;3.80;;
79361;SDS011;68830;47.566;19.012;2023-05-07T04:33:49;3.83;;;3.53;;
79361;SDS011;68830;47.566;19.012;2023-05-07T04:36:52;4.60;;;4.20;;
79361;SDS011;68830;47.566;19.012;2023-05-07T04:39:54;4.28;;;3.95;;
79361;SDS011;68830;47.566;19.012;2023-05-07T04:42:58;4.53;;;4.13;;
79361;SDS011;68830;47.566;19.012;2023-05-07T04:46:00;3.75;;;3.45;;
79361;SDS011;68830;47.566;19.012;2023-05-07T04:49:02;4.05;;;3.63;;
79361;SDS011;68830;47.566;19.012;2023-05-07T04:52:04;4.05;;;3.65;;
79361;SDS011;68830;47.566;19.012;2023-05-07T04:55:07;3.72;;;3.42;;
79361;SDS011;68830;47.566;19.012;2023-05-07T04:58:11;3.72;;;3.42;;
79361;SDS011;68830;47.566;19.012;2023-05-07T05:01:13;4.30;;;3.50;;
79361;SDS011;68830;47.566;19.012;2023-05-07T05:04:15;4.07;;;3.67;;
79361;SDS011;68830;47.566;19.012;2023-05-07T05:07:17;3.13;;;2.92;;
79361;SDS011;68830;47.566;19.012;2023-05-07T05:10:19;3.25;;;2.95;;
79361;SDS011;68830;47.566;19.012;2023-05-07T05:13:27;4.20;;;3.67;;
79361;SDS011;68830;47.566;19.012;2023-05-07T05:16:29;3.40;;;3.10;;
79361;SDS011;68830;47.566;19.012;2023-05-07T05:19:32;3.95;;;3.65;;
79361;SDS011;68830;47.566;19.012;2023-05-07T05:22:34;4.72;;;3.83;;
79361;SDS011;68830;47.566;19.012;2023-05-07T05:25:36;4.22;;;3.53;;
79361;SDS011;68830;47.566;19.012;2023-05-07T05:28:42;3.88;;;3.33;;
79361;SDS011;68830;47.566;19.012;2023-05-07T05:31:44;3.47;;;3.17;;
79361;SDS011;68830;47.566;19.012;2023-05-07T05:34:47;3.85;;;3.17;;
79361;SDS011;68830;47.566;19.012;2023-05-07T05:37:49;3.80;;;3.40;;
79361;SDS011;68830;47.566;19.012;2023-05-07T05:40:51;3.38;;;3.08;;
79361;SDS011;68830;47.566;19.012;2023-05-07T05:43:57;3.72;;;3.42;;
79361;SDS011;68830;47.566;19.012;2023-05-07T05:46:59;3.60;;;3.30;;
79361;SDS011;68830;47.566;19.012;2023-05-07T05:50:01;3.30;;;3.00;;
79361;SDS011;68830;47.566;19.012;2023-05-07T05:53:03;4.00;;;3.55;;
79361;SDS011;68830;47.566;19.012;2023-05-07T05:56:06;3.35;;;3.05;;
79361;SDS011;68830;47.566;19.012;2023-05-07T05:59:10;3.50;;;3.20;;
79361;SDS011;68830;47.566;19.012;2023-05-07T06:02:12;5.03;;;3.13;;
79361;SDS011;68830;47.566;19.012;2023-05-07T06:05:14;3.28;;;2.95;;
79361;SDS011;68830;47.566;19.012;2023-05-07T06:08:16;2.90;;;2.60;;
79361;SDS011;68830;47.566;19.012;2023-05-07T06:11:20;3.05;;;2.55;;
79361;SDS011;68830;47.566;19.012;2023-05-07T06:14:24;2.80;;;2.50;;
79361;SDS011;68830;47.566;19.012;2023-05-07T06:17:26;2.30;;;2.10;;
79361;SDS011;68830;47.566;19.012;2023-05-07T06:20:28;2.88;;;2.67;;
79361;SDS011;68830;47.566;19.012;2023-05-07T06:23:30;3.17;;;2.88;;
79361;SDS011;68830;47.566;19.012;2023-05-07T06:26:32;3.15;;;2.85;;
79361;SDS011;68830;47.566;19.012;2023-05-07T06:29:35;2.97;;;2.78;;
79361;SDS011;68830;47.566;19.012;2023-05-07T06:32:39;3.10;;;2.90;;
79361;SDS011;68830;47.566;19.012;2023-05-07T06:35:42;3.22;;;2.92;;
79361;SDS011;68830;47.566;19.012;2023-05-07T06:38:43;4.05;;;3.75;;
79361;SDS011;68830;47.566;19.012;2023-05-07T06:41:46;4.68;;;4.28;;
79361;SDS011;68830;47.566;19.012;2023-05-07T06:44:50;4.05;;;3.65;;
79361;SDS011;68830;47.566;19.012;2023-05-07T06:47:52;4.85;;;4.45;;
79361;SDS011;68830;47.566;19.012;2023-05-07T06:50:54;5.30;;;4.90;;
79361;SDS011;68830;47.566;19.012;2023-05-07T06:53:58;5.00;;;4.60;;
79361;SDS011;68830;47.566;19.012;2023-05-07T06:57:01;4.78;;;4.05;;
79361;SDS011;68830;47.566;19.012;2023-05-07T07:00:05;5.07;;;4.68;;
79361;SDS011;68830;47.566;19.012;2023-05-07T07:03:11;4.63;;;4.22;;
79361;SDS011;68830;47.566;19.012;2023-05-07T07:06:13;4.82;;;4.43;;
79361;SDS011;68830;47.566;19.012;2023-05-07T07:09:15;4.38;;;4.07;;
79361;SDS011;68830;47.566;19.012;2023-05-07T07:12:18;4.30;;;3.90;;
79361;SDS011;68830;47.566;19.012;2023-05-07T07:15:21;3.95;;;3.63;;
79361;SDS011;68830;47.566;19.012;2023-05-07T07:18:24;3.65;;;3.35;;
79361;SDS011;68830;47.566;19.012;2023-05-07T07:21:26;3.85;;;3.55;;
79361;SDS011;68830;47.566;19.012;2023-05-07T07:24:28;3.67;;;3.33;;
79361;SDS011;68830;47.566;19.012;2023-05-07T07:27:30;3.78;;;3.47;;
79361;SDS011;68830;47.566;19.012;2023-05-07T07:30:33;4.13;;;3.72;;
79361;SDS011;68830;47.566;19.012;2023-05-07T07:33:36;3.42;;;3.13;;
79361;SDS011;68830;47.566;19.012;2023-05-07T07:36:38;4.53;;;3.25;;
79361;SDS011;68830;47.566;19.012;2023-05-07T07:39:47;3.80;;;3.50;;
79361;SDS011;68830;47.566;19.012;2023-05-07T07:42:49;3.83;;;3.50;;
79361;SDS011;68830;47.566;19.012;2023-05-07T07:45:52;4.22;;;3.85;;
79361;SDS011;68830;47.566;19.012;2023-05-07T07:48:55;3.67;;;3.38;;
79361;SDS011;68830;47.566;19.012;2023-05-07T07:52:00;4.03;;;3.63;;
79361;SDS011;68830;47.566;19.012;2023-05-07T07:55:02;3.75;;;3.45;;
79361;SDS011;68830;47.566;19.012;2023-05-07T07:58:05;3.65;;;3.35;;
79361;SDS011;68830;47.566;19.012;2023-05-07T08:01:09;4.05;;;3.10;;
79361;SDS011;68830;47.566;19.012;2023-05-07T08:04:11;3.30;;;2.97;;
79361;SDS011;68830;47.566;19.012;2023-05-07T08:07:13;3.45;;;3.15;;
79361;SDS011;68830;47.566;19.012;2023-05-07T08:10:15;3.40;;;3.10;;
79361;SDS011;68830;47.566;19.012;2023-05-07T08:13:22;3.25;;;3.05;;
79361;SDS011;68830;47.566;19.012;2023-05-07T08:16:25;3.20;;;2.90;;
79361;SDS011;68830;47.566;19.012;2023-05-07T08:19:28;3.10;;;2.90;;
79361;SDS011;68830;47.566;19.012;2023-05-07T08:22:30;2.50;;;2.30;;
79361;SDS011;68830;47.566;19.012;2023-05-07T08:25:32;2.70;;;2.50;;
79361;SDS011;68830;47.566;19.012;2023-05-07T08:28:34;2.42;;;2.22;;
79361;SDS011;68830;47.566;19.012;2023-05-07T08:31:38;2.40;;;2.20;;
79361;SDS011;68830;47.566;19.012;2023-05-07T08:34:41;3.33;;;2.35;;
79361;SDS011;68830;47.566;19.012;2023-05-07T08:37:43;2.60;;;2.40;;
79361;SDS011;68830;47.566;19.012;2023-05-07T08:40:46;2.88;;;2.63;;
79361;SDS011;68830;47.566;19.012;2023-05-07T08:43:49;2.97;;;2.67;;
79361;SDS011;68830;47.566;19.012;2023-05-07T08:46:53;2.38;;;2.17;;
79361;SDS011;68830;47.566;19.012;2023-05-07T08:49:57;2.55;;;2.08;;
79361;SDS011;68830;47.566;19.012;2023-05-07T08:52:59;2.95;;;2.65;;
79361;SDS011;68830;47.566;19.012;2023-05-07T08:56:01;2.83;;;2.33;;
79361;SDS011;68830;47.566;19.012;2023-05-07T08:59:05;3.13;;;2.83;;
79361;SDS011;68830;47.566;19.012;2023-05-07T09:02:08;3.55;;;2.65;;
79361;SDS011;68830;47.566;19.012;2023-05-07T09:05:11;2.75;;;2.53;;
79361;SDS011;68830;47.566;19.012;2023-05-07T09:08:14;3.28;;;2.97;;
79361;SDS011;68830;47.566;19.012;2023-05-07T09:11:19;3.40;;;3.10;;
79361;SDS011;68830;47.566;19.012;2023-05-07T09:14:22;3.28;;;2.65;;
79361;SDS011;68830;47.566;19.012;2023-05-07T09:17:26;3.50;;;3.20;;
79361;SDS011;68830;47.566;19.012;2023-05-07T09:20:30;3.22;;;2.53;;
79361;SDS011;68830;47.566;19.012;2023-05-07T09:23:33;2.47;;;2.28;;
79361;SDS011;68830;47.566;19.012;2023-05-07T09:26:35;2.60;;;2.40;;
79361;SDS011;68830;47.566;19.012;2023-05-07T09:29:37;5.70;;;2.30;;
79361;SDS011;68830;47.566;19.012;2023-05-07T09:32:40;3.08;;;2.80;;
79361;SDS011;68830;47.566;19.012;2023-05-07T09:35:42;3.30;;;3.00;;
79361;SDS011;68830;47.566;19.012;2023-05-07T09:38:44;2.33;;;2.13;;
79361;SDS011;68830;47.566;19.012;2023-05-07T09:41:47;2.40;;;2.20;;
79361;SDS011;68830;47.566;19.012;2023-05-07T09:44:50;2.65;;;2.45;;
79361;SDS011;68830;47.566;19.012;2023-05-07T09:47:56;2.60;;;1.95;;
79361;SDS011;68830;47.566;19.012;2023-05-07T09:51:01;2.15;;;1.95;;
79361;SDS011;68830;47.566;19.012;2023-05-07T09:54:05;2.75;;;2.30;;
79361;SDS011;68830;47.566;19.012;2023-05-07T09:57:08;2.90;;;2.67;;
79361;SDS011;68830;47.566;19.012;2023-05-07T10:00:12;2.30;;;2.10;;
79361;SDS011;68830;47.566;19.012;2023-05-07T10:03:18;2.60;;;2.40;;
79361;SDS011;68830;47.566;19.012;2023-05-07T10:06:21;2.30;;;2.10;;
79361;SDS011;68830;47.566;19.012;2023-05-07T10:12:29;2.00;;;1.83;;
79361;SDS011;68830;47.566;19.012;2023-05-07T10:15:38;2.35;;;2.15;;
79361;SDS011;68830;47.566;19.012;2023-05-07T10:18:42;2.38;;;2.08;;
79361;SDS011;68830;47.566;19.012;2023-05-07T10:21:50;1.80;;;1.60;;
79361;SDS011;68830;47.566;19.012;2023-05-07T10:24:59;2.90;;;2.63;;
79361;SDS011;68830;47.566;19.012;2023-05-07T10:28:04;2.08;;;1.88;;
79361;SDS011;68830;47.566;19.012;2023-05-07T10:31:11;2.90;;;2.63;;
79361;SDS011;68830;47.566;19.012;2023-05-07T10:34:24;2.90;;;2.60;;
79361;SDS011;68830;47.566;19.012;2023-05-07T10:37:32;3.30;;;3.00;;
79361;SDS011;68830;47.566;19.012;2023-05-07T10:40:35;2.22;;;2.03;;
79361;SDS011;68830;47.566;19.012;2023-05-07T10:43:38;2.60;;;2.20;;
79361;SDS011;68830;47.566;19.012;2023-05-07T10:46:42;2.88;;;2.38;;
79361;SDS011;68830;47.566;19.012;2023-05-07T10:53:25;2.22;;;1.95;;
79361;SDS011;68830;47.566;19.012;2023-05-07T10:56:29;1.75;;;1.60;;
79361;SDS011;68830;47.566;19.012;2023-05-07T10:59:34;1.98;;;1.85;;
79361;SDS011;68830;47.566;19.012;2023-05-07T11:06:11;2.22;;;2.03;;
79361;SDS011;68830;47.566;19.012;2023-05-07T11:09:14;2.58;;;2.20;;
79361;SDS011;68830;47.566;19.012;2023-05-07T11:12:16;1.70;;;1.60;;
79361;SDS011;68830;47.566;19.012;2023-05-07T11:15:33;3.22;;;2.17;;
79361;SDS011;68830;47.566;19.012;2023-05-07T11:18:47;2.20;;;2.00;;
79361;SDS011;68830;47.566;19.012;2023-05-07T11:21:52;2.38;;;1.83;;
79361;SDS011;68830;47.566;19.012;2023-05-07T11:24:55;2.35;;;1.83;;
79361;SDS011;68830;47.566;19.012;2023-05-07T11:28:03;2.47;;;2.05;;
79361;SDS011;68830;47.566;19.012;2023-05-07T11:31:07;2.33;;;2.13;;
79361;SDS011;68830;47.566;19.012;2023-05-07T11:34:09;2.78;;;1.98;;
79361;SDS011;68830;47.566;19.012;2023-05-07T11:37:17;2.40;;;2.05;;
79361;SDS011;68830;47.566;19.012;2023-05-07T11:40:21;3.03;;;1.80;;
79361;SDS011;68830;47.566;19.012;2023-05-07T11:43:22;1.73;;;1.63;;
79361;SDS011;68830;47.566;19.012;2023-05-07T11:46:25;2.55;;;1.92;;
79361;SDS011;68830;47.566;19.012;2023-05-07T11:49:27;2.33;;;2.13;;
79361;SDS011;68830;47.566;19.012;2023-05-07T11:52:33;1.85;;;1.52;;
79361;SDS011;68830;47.566;19.012;2023-05-07T11:55:36;1.77;;;1.63;;
79361;SDS011;68830;47.566;19.012;2023-05-07T11:58:38;2.20;;;1.80;;
79361;SDS011;68830;47.566;19.012;2023-05-07T12:01:40;2.28;;;2.03;;
79361;SDS011;68830;47.566;19.012;2023-05-07T12:04:47;2.55;;;1.77;;
79361;SDS011;68830;47.566;19.012;2023-05-07T12:07:56;2.03;;;1.75;;
79361;SDS011;68830;47.566;19.012;2023-05-07T12:10:58;1.75;;;1.65;;
79361;SDS011;68830;47.566;19.012;2023-05-07T12:14:00;1.98;;;1.70;;
79361;SDS011;68830;47.566;19.012;2023-05-07T12:17:03;2.92;;;1.80;;
79361;SDS011;68830;47.566;19.012;2023-05-07T12:20:07;2.67;;;2.20;;
79361;SDS011;68830;47.566;19.012;2023-05-07T12:23:12;1.70;;;1.60;;
79361;SDS011;68830;47.566;19.012;2023-05-07T12:26:14;1.70;;;1.60;;
79361;SDS011;68830;47.566;19.012;2023-05-07T12:29:16;2.22;;;1.80;;
79361;SDS011;68830;47.566;19.012;2023-05-07T12:32:18;1.98;;;1.77;;
79361;SDS011;68830;47.566;19.012;2023-05-07T12:35:27;1.67;;;1.58;;
79361;SDS011;68830;47.566;19.012;2023-05-07T12:38:34;2.25;;;1.90;;
79361;SDS011;68830;47.566;19.012;2023-05-07T12:41:51;2.10;;;1.80;;
79361;SDS011;68830;47.566;19.012;2023-05-07T12:44:55;1.85;;;1.52;;
79361;SDS011;68830;47.566;19.012;2023-05-07T12:48:00;3.15;;;1.70;;
79361;SDS011;68830;47.566;19.012;2023-05-07T12:51:04;1.90;;;1.77;;
79361;SDS011;68830;47.566;19.012;2023-05-07T12:54:09;1.73;;;1.60;;
79361;SDS011;68830;47.566;19.012;2023-05-07T12:57:11;2.17;;;1.92;;
79361;SDS011;68830;47.566;19.012;2023-05-07T13:00:14;1.90;;;1.80;;
79361;SDS011;68830;47.566;19.012;2023-05-07T13:03:20;2.10;;;1.70;;
79361;SDS011;68830;47.566;19.012;2023-05-07T13:06:24;1.92;;;1.63;;
79361;SDS011;68830;47.566;19.012;2023-05-07T13:09:28;1.75;;;1.60;;
79361;SDS011;68830;47.566;19.012;2023-05-07T13:12:32;2.17;;;1.60;;
79361;SDS011;68830;47.566;19.012;2023-05-07T13:15:34;2.00;;;1.80;;
79361;SDS011;68830;47.566;19.012;2023-05-07T13:18:37;1.98;;;1.77;;
79361;SDS011;68830;47.566;19.012;2023-05-07T13:21:41;1.90;;;1.70;;
79361;SDS011;68830;47.566;19.012;2023-05-07T13:24:45;2.47;;;1.73;;
79361;SDS011;68830;47.566;19.012;2023-05-07T13:27:46;2.38;;;2.00;;
79361;SDS011;68830;47.566;19.012;2023-05-07T13:31:03;1.85;;;1.73;;
79361;SDS011;68830;47.566;19.012;2023-05-07T13:34:05;2.40;;;1.77;;
79361;SDS011;68830;47.566;19.012;2023-05-07T13:37:07;1.88;;;1.55;;
79361;SDS011;68830;47.566;19.012;2023-05-07T13:40:13;1.58;;;1.48;;
79361;SDS011;68830;47.566;19.012;2023-05-07T13:43:15;2.40;;;2.05;;
79361;SDS011;68830;47.566;19.012;2023-05-07T13:46:18;2.30;;;2.08;;
79361;SDS011;68830;47.566;19.012;2023-05-07T13:49:20;2.97;;;1.92;;
79361;SDS011;68830;47.566;19.012;2023-05-07T13:52:23;2.25;;;1.90;;
79361;SDS011;68830;47.566;19.012;2023-05-07T13:55:28;2.20;;;1.98;;
79361;SDS011;68830;47.566;19.012;2023-05-07T13:58:30;1.73;;;1.63;;
79361;SDS011;68830;47.566;19.012;2023-05-07T14:01:32;1.48;;;1.38;;
79361;SDS011;68830;47.566;19.012;2023-05-07T14:04:34;2.25;;;2.05;;
79361;SDS011;68830;47.566;19.012;2023-05-07T14:07:36;1.67;;;1.58;;
79361;SDS011;68830;47.566;19.012;2023-05-07T14:10:40;1.70;;;1.45;;
79361;SDS011;68830;47.566;19.012;2023-05-07T14:13:42;1.80;;;1.70;;
79361;SDS011;68830;47.566;19.012;2023-05-07T14:16:44;2.00;;;1.45;;
79361;SDS011;68830;47.566;19.012;2023-05-07T14:19:48;2.47;;;1.80;;
79361;SDS011;68830;47.566;19.012;2023-05-07T14:22:51;2.05;;;1.80;;
79361;SDS011;68830;47.566;19.012;2023-05-07T14:25:55;1.88;;;1.67;;
79361;SDS011;68830;47.566;19.012;2023-05-07T14:28:58;2.00;;;1.80;;
79361;SDS011;68830;47.566;19.012;2023-05-07T14:32:00;2.28;;;2.08;;
79361;SDS011;68830;47.566;19.012;2023-05-07T14:35:02;2.20;;;1.70;;
79361;SDS011;68830;47.566;19.012;2023-05-07T14:38:05;2.38;;;1.80;;
79361;SDS011;68830;47.566;19.012;2023-05-07T14:41:08;2.20;;;2.00;;
79361;SDS011;68830;47.566;19.012;2023-05-07T14:44:11;1.90;;;1.70;;
79361;SDS011;68830;47.566;19.012;2023-05-07T14:47:13;2.10;;;1.90;;
79361;SDS011;68830;47.566;19.012;2023-05-07T14:50:18;1.92;;;1.80;;
79361;SDS011;68830;47.566;19.012;2023-05-07T14:53:20;2.58;;;2.35;;
79361;SDS011;68830;47.566;19.012;2023-05-07T14:56:24;2.47;;;2.28;;
79361;SDS011;68830;47.566;19.012;2023-05-07T14:59:26;2.20;;;2.00;;
79361;SDS011;68830;47.566;19.012;2023-05-07T15:02:28;3.08;;;2.22;;
79361;SDS011;68830;47.566;19.012;2023-05-07T15:05:30;2.43;;;2.10;;
79361;SDS011;68830;47.566;19.012;2023-05-07T15:08:32;2.47;;;2.28;;
79361;SDS011;68830;47.566;19.012;2023-05-07T15:11:35;3.92;;;2.42;;
79361;SDS011;68830;47.566;19.012;2023-05-07T15:14:37;2.10;;;1.95;;
79361;SDS011;68830;47.566;19.012;2023-05-07T15:17:39;2.20;;;2.00;;
79361;SDS011;68830;47.566;19.012;2023-05-07T15:20:41;2.58;;;2.38;;
79361;SDS011;68830;47.566;19.012;2023-05-07T15:23:44;2.30;;;2.10;;
79361;SDS011;68830;47.566;19.012;2023-05-07T15:26:48;2.35;;;1.92;;
79361;SDS011;68830;47.566;19.012;2023-05-07T15:29:50;1.73;;;1.55;;
79361;SDS011;68830;47.566;19.012;2023-05-07T15:32:53;2.53;;;2.30;;
79361;SDS011;68830;47.566;19.012;2023-05-07T15:35:55;2.03;;;1.83;;
79361;SDS011;68830;47.566;19.012;2023-05-07T15:39:00;1.67;;;1.58;;
79361;SDS011;68830;47.566;19.012;2023-05-07T15:42:05;2.20;;;1.67;;
79361;SDS011;68830;47.566;19.012;2023-05-07T15:45:08;1.83;;;1.63;;
79361;SDS011;68830;47.566;19.012;2023-05-07T15:51:14;1.67;;;1.58;;
79361;SDS011;68830;47.566;19.012;2023-05-07T15:54:17;1.73;;;1.58;;
79361;SDS011;68830;47.566;19.012;2023-05-07T15:57:22;1.60;;;1.40;;
79361;SDS011;68830;47.566;19.012;2023-05-07T16:00:25;1.42;;;1.33;;
79361;SDS011;68830;47.566;19.012;2023-05-07T16:03:28;2.72;;;1.45;;
79361;SDS011;68830;47.566;19.012;2023-05-07T16:06:31;1.60;;;1.42;;
79361;SDS011;68830;47.566;19.012;2023-05-07T16:09:33;2.40;;;2.20;;
79361;SDS011;68830;47.566;19.012;2023-05-07T16:12:36;1.55;;;1.45;;
79361;SDS011;68830;47.566;19.012;2023-05-07T16:15:39;1.67;;;1.33;;
79361;SDS011;68830;47.566;19.012;2023-05-07T16:18:41;1.73;;;1.40;;
79361;SDS011;68830;47.566;19.012;2023-05-07T16:21:43;1.80;;;1.48;;
79361;SDS011;68830;47.566;19.012;2023-05-07T16:24:45;2.30;;;1.25;;
79361;SDS011;68830;47.566;19.012;2023-05-07T16:27:48;1.35;;;1.20;;
79361;SDS011;68830;47.566;19.012;2023-05-07T16:30:50;1.40;;;1.30;;
79361;SDS011;68830;47.566;19.012;2023-05-07T16:33:52;1.30;;;1.20;;
79361;SDS011;68830;47.566;19.012;2023-05-07T16:36:55;1.40;;;1.30;;
79361;SDS011;68830;47.566;19.012;2023-05-07T16:39:59;1.30;;;1.20;;
79361;SDS011;68830;47.566;19.012;2023-05-07T16:43:03;1.20;;;1.08;;
79361;SDS011;68830;47.566;19.012;2023-05-07T16:46:05;1.48;;;1.35;;
79361;SDS011;68830;47.566;19.012;2023-05-07T16:49:08;1.80;;;1.40;;
79361;SDS011;68830;47.566;19.012;2023-05-07T16:52:10;1.48;;;1.27;;
79361;SDS011;68830;47.566;19.012;2023-05-07T16:55:12;2.10;;;1.60;;
79361;SDS011;68830;47.566;19.012;2023-05-07T16:58:16;2.28;;;1.60;;
79361;SDS011;68830;47.566;19.012;2023-05-07T17:01:18;1.30;;;1.20;;
79361;SDS011;68830;47.566;19.012;2023-05-07T17:04:21;1.95;;;1.50;;
79361;SDS011;68830;47.566;19.012;2023-05-07T17:07:24;1.63;;;1.40;;
79361;SDS011;68830;47.566;19.012;2023-05-07T17:10:27;1.55;;;1.42;;
79361;SDS011;68830;47.566;19.012;2023-05-07T17:13:30;1.48;;;1.30;;
79361;SDS011;68830;47.566;19.012;2023-05-07T17:16:33;1.00;;;1.00;;
79361;SDS011;68830;47.566;19.012;2023-05-07T17:19:35;1.50;;;1.13;;
79361;SDS011;68830;47.566;19.012;2023-05-07T17:22:41;1.25;;;1.13;;
79361;SDS011;68830;47.566;19.012;2023-05-07T17:25:42;1.05;;;1.02;;
79361;SDS011;68830;47.566;19.012;2023-05-07T17:28:50;1.40;;;1.30;;
79361;SDS011;68830;47.566;19.012;2023-05-07T17:31:52;1.42;;;1.20;;
79361;SDS011;68830;47.566;19.012;2023-05-07T17:34:54;2.25;;;1.50;;
79361;SDS011;68830;47.566;19.012;2023-05-07T17:37:56;1.75;;;1.40;;
79361;SDS011;68830;47.566;19.012;2023-05-07T17:40:58;1.20;;;1.10;;
79361;SDS011;68830;47.566;19.012;2023-05-07T17:44:04;1.55;;;1.20;;
79361;SDS011;68830;47.566;19.012;2023-05-07T17:47:06;1.50;;;1.40;;
79361;SDS011;68830;47.566;19.012;2023-05-07T17:50:09;1.35;;;1.23;;
79361;SDS011;68830;47.566;19.012;2023-05-07T17:53:13;1.33;;;1.20;;
79361;SDS011;68830;47.566;19.012;2023-05-07T17:56:14;1.63;;;1.52;;
79361;SDS011;68830;47.566;19.012;2023-05-07T17:59:19;2.55;;;1.40;;
79361;SDS011;68830;47.566;19.012;2023-05-07T18:02:21;2.13;;;1.83;;
79361;SDS011;68830;47.566;19.012;2023-05-07T18:05:24;1.42;;;1.30;;
79361;SDS011;68830;47.566;19.012;2023-05-07T18:08:28;2.40;;;1.83;;
79361;SDS011;68830;47.566;19.012;2023-05-07T18:11:29;1.85;;;1.63;;
79361;SDS011;68830;47.566;19.012;2023-05-07T18:14:35;2.30;;;1.73;;
79361;SDS011;68830;47.566;19.012;2023-05-07T18:17:37;2.40;;;1.90;;
79361;SDS011;68830;47.566;19.012;2023-05-07T18:20:39;1.92;;;1.67;;